createdAt,value
2018-05-08T00:01:38.761Z,11.20
2018-05-08T00:04:06.367Z,11.20
2018-05-08T00:06:33.936Z,11.20
2018-05-08T00:09:01.569Z,11.10
2018-05-08T00:11:29.194Z,11.10
2018-05-08T00:13:56.805Z,11.00
2018-05-08T00:16:24.386Z,10.90
2018-05-08T00:18:52.764Z,11.00
2018-05-08T00:21:20.362Z,10.90
2018-05-08T00:23:48.034Z,10.90
2018-05-08T00:26:15.649Z,10.90
2018-05-08T00:28:44.051Z,10.80
2018-05-08T00:31:11.657Z,10.80
2018-05-08T00:33:39.232Z,10.90
2018-05-08T00:36:06.853Z,10.90
2018-05-08T00:38:34.445Z,10.80
2018-05-08T00:41:02.052Z,10.70
2018-05-08T00:43:29.613Z,10.60
2018-05-08T00:45:57.217Z,10.50
2018-05-08T00:48:24.800Z,10.50
2018-05-08T00:50:52.416Z,10.60
2018-05-08T00:53:19.981Z,10.50
2018-05-08T00:55:47.605Z,10.40
2018-05-08T00:58:16.029Z,10.40
2018-05-08T01:00:43.636Z,10.40
2018-05-08T01:03:11.985Z,10.30
2018-05-08T01:05:39.626Z,10.30
2018-05-08T01:08:07.190Z,10.30
2018-05-08T01:10:34.805Z,10.20
2018-05-08T01:13:02.403Z,10.20
2018-05-08T01:15:29.981Z,10.20
2018-05-08T01:17:57.627Z,10.20
2018-05-08T01:20:25.246Z,10.20
2018-05-08T01:22:52.877Z,10.20
2018-05-08T01:25:20.463Z,10.10
2018-05-08T01:27:48.896Z,10.00
2018-05-08T01:30:16.494Z,10.00
2018-05-08T01:32:44.874Z,10.10
2018-05-08T01:35:13.195Z,10.20
2018-05-08T01:37:40.742Z,10.20
2018-05-08T01:40:08.373Z,10.20
2018-05-08T01:42:36.720Z,10.00
2018-05-08T01:45:04.594Z,10.00
2018-05-08T01:47:32.178Z,9.90
2018-05-08T01:50:00.604Z,9.80
2018-05-08T01:52:28.194Z,9.70
2018-05-08T01:54:55.837Z,9.80
2018-05-08T01:57:23.479Z,9.70
2018-05-08T01:59:51.093Z,9.70
2018-05-08T02:02:18.738Z,9.60
2018-05-08T02:04:46.345Z,9.50
2018-05-08T02:07:13.951Z,9.60
2018-05-08T02:09:41.564Z,9.60
2018-05-08T02:12:09.133Z,9.50
2018-05-08T02:14:36.705Z,9.50
2018-05-08T02:17:04.322Z,9.40
2018-05-08T02:19:32.674Z,9.40
2018-05-08T02:22:00.317Z,9.40
2018-05-08T02:24:27.945Z,9.30
2018-05-08T02:26:55.574Z,9.30
2018-05-08T02:29:23.175Z,9.30
2018-05-08T02:31:50.734Z,9.20
2018-05-08T02:34:18.343Z,9.20
2018-05-08T02:36:45.909Z,9.20
2018-05-08T02:39:13.527Z,9.20
2018-05-08T02:41:41.175Z,9.20
2018-05-08T02:44:08.800Z,9.30
2018-05-08T02:46:37.210Z,9.40
2018-05-08T02:49:04.909Z,9.30
2018-05-08T02:51:32.474Z,9.30
2018-05-08T02:54:00.056Z,9.30
2018-05-08T02:56:27.693Z,9.30
2018-05-08T02:58:55.264Z,9.20
2018-05-08T03:01:22.883Z,9.20
2018-05-08T03:03:51.289Z,9.10
2018-05-08T03:06:18.970Z,9.10
2018-05-08T03:08:46.584Z,9.00
2018-05-08T03:11:14.257Z,9.00
2018-05-08T03:13:41.857Z,9.00
2018-05-08T03:16:09.493Z,8.90
2018-05-08T03:18:37.061Z,8.90
2018-05-08T03:21:04.677Z,8.80
2018-05-08T03:23:32.232Z,8.80
2018-05-08T03:25:59.871Z,8.80
2018-05-08T03:28:28.224Z,8.80
2018-05-08T03:30:55.846Z,8.80
2018-05-08T03:33:23.449Z,8.80
2018-05-08T03:35:51.058Z,8.80
2018-05-08T03:38:18.646Z,8.80
2018-05-08T03:40:46.233Z,8.80
2018-05-08T03:43:13.805Z,8.80
2018-05-08T03:45:42.145Z,8.80
2018-05-08T03:48:09.720Z,8.80
2018-05-08T03:50:37.316Z,8.80
2018-05-08T03:53:05.683Z,8.80
2018-05-08T03:55:33.277Z,8.80
2018-05-08T03:58:00.890Z,8.80
2018-05-08T04:00:40.415Z,8.80
2018-05-08T04:03:19.801Z,8.80
2018-05-08T04:05:50.271Z,8.90
2018-05-08T04:08:21.763Z,8.90
2018-05-08T04:10:49.318Z,8.90
2018-05-08T04:13:17.656Z,9.00
2018-05-08T04:15:45.253Z,9.00
2018-05-08T04:20:47.587Z,9.10
2018-05-08T04:23:15.208Z,9.30
2018-05-08T04:25:43.611Z,9.40
2018-05-08T04:28:11.210Z,9.60
2018-05-08T04:30:38.805Z,9.60
2018-05-08T04:33:07.195Z,9.50
2018-05-08T04:35:42.446Z,9.60
2018-05-08T04:38:10.016Z,9.60
2018-05-08T04:40:37.633Z,9.60
2018-05-08T04:43:05.250Z,9.80
2018-05-08T04:45:32.876Z,10.10
2018-05-08T04:48:01.187Z,10.60
2018-05-08T04:50:29.589Z,10.60
2018-05-08T04:52:57.237Z,10.60
2018-05-08T04:55:24.864Z,10.70
2018-05-08T04:57:52.525Z,10.70
2018-05-08T05:00:20.122Z,10.70
2018-05-08T05:02:47.734Z,10.70
2018-05-08T05:05:15.334Z,10.70
2018-05-08T05:07:42.985Z,10.70
2018-05-08T05:10:10.604Z,10.90
2018-05-08T05:12:38.187Z,10.90
2018-05-08T05:15:05.796Z,11.00
2018-05-08T05:17:33.437Z,11.00
2018-05-08T05:20:01.043Z,10.90
2018-05-08T05:22:28.671Z,10.90
2018-05-08T05:24:56.238Z,10.80
2018-05-08T05:27:23.907Z,10.90
2018-05-08T05:29:51.544Z,11.10
2018-05-08T05:32:19.215Z,11.20
2018-05-08T05:34:46.835Z,11.40
2018-05-08T05:37:15.162Z,11.70
2018-05-08T05:39:42.794Z,11.70
2018-05-08T05:42:10.362Z,11.90
2018-05-08T05:44:38.001Z,12.00
2018-05-08T05:47:05.609Z,12.20
2018-05-08T05:49:33.191Z,12.40
2018-05-08T05:52:00.818Z,12.50
2018-05-08T05:54:28.398Z,12.70
2018-05-08T05:56:55.990Z,13.00
2018-05-08T05:59:24.421Z,13.50
2018-05-08T06:01:52.039Z,13.40
2018-05-08T06:04:19.594Z,13.60
2018-05-08T06:06:47.162Z,13.70
2018-05-08T06:09:14.756Z,13.80
2018-05-08T06:11:42.359Z,13.90
2018-05-08T06:14:10.087Z,14.00
2018-05-08T06:16:38.401Z,14.00
2018-05-08T06:19:06.750Z,14.10
2018-05-08T06:21:36.338Z,14.10
2018-05-08T06:24:03.983Z,14.20
2018-05-08T06:26:31.640Z,14.40
2018-05-08T06:28:59.255Z,14.60
2018-05-08T06:31:26.912Z,14.70
2018-05-08T06:33:54.508Z,14.80
2018-05-08T06:36:22.098Z,14.80
2018-05-08T06:38:49.825Z,14.80
2018-05-08T06:41:19.113Z,14.90
2018-05-08T06:43:47.492Z,15.00
2018-05-08T06:46:15.864Z,15.30
2018-05-08T06:48:43.469Z,15.30
2018-05-08T06:51:11.124Z,15.60
2018-05-08T06:53:38.780Z,15.70
2018-05-08T06:56:06.414Z,15.90
2018-05-08T06:58:34.807Z,16.20
2018-05-08T07:01:02.440Z,16.20
2018-05-08T07:03:30.013Z,16.30
2018-05-08T07:05:57.573Z,16.60
2018-05-08T07:08:25.989Z,16.80
2018-05-08T07:10:53.661Z,16.70
2018-05-08T07:13:21.310Z,16.90
2018-05-08T07:15:49.599Z,17.00
2018-05-08T07:18:17.119Z,17.10
2018-05-08T07:20:45.514Z,17.40
2018-05-08T07:23:13.100Z,17.40
2018-05-08T07:25:40.653Z,17.60
2018-05-08T07:28:08.312Z,17.80
2018-05-08T07:30:36.679Z,18.10
2018-05-08T07:33:04.343Z,18.10
2018-05-08T07:35:31.940Z,18.30
2018-05-08T07:37:59.551Z,18.50
2018-05-08T07:40:27.113Z,18.60
2018-05-08T07:42:54.670Z,18.80
2018-05-08T07:45:22.400Z,19.00
2018-05-08T07:47:49.997Z,19.30
2018-05-08T07:50:17.696Z,19.60
2018-05-08T07:52:45.278Z,19.80
2018-05-08T07:55:12.880Z,19.80
2018-05-08T07:57:40.467Z,20.00
2018-05-08T08:00:08.049Z,20.40
2018-05-08T08:02:35.658Z,20.80
2018-05-08T08:05:03.258Z,21.30
2018-05-08T08:07:30.958Z,22.10
2018-05-08T08:09:58.498Z,23.00
2018-05-08T08:12:26.193Z,23.00
2018-05-08T08:14:53.770Z,22.70
2018-05-08T08:17:21.382Z,22.50
2018-05-08T08:19:48.989Z,22.60
2018-05-08T08:22:16.590Z,22.80
2018-05-08T08:24:44.161Z,24.00
2018-05-08T08:27:11.755Z,25.50
2018-05-08T08:29:39.412Z,27.60
2018-05-08T08:32:06.955Z,29.50
2018-05-08T08:34:35.327Z,31.30
2018-05-08T08:37:02.905Z,31.20
2018-05-08T08:39:31.315Z,32.40
2018-05-08T08:41:59.743Z,32.60
2018-05-08T08:44:27.626Z,32.60
2018-05-08T08:46:55.952Z,33.60
2018-05-08T08:49:23.580Z,33.50
2018-05-08T08:51:51.152Z,33.60
2018-05-08T08:54:18.790Z,33.50
2018-05-08T08:56:53.442Z,33.80
2018-05-08T08:59:21.082Z,33.80
2018-05-08T09:01:48.706Z,34.00
2018-05-08T09:04:16.273Z,35.10
2018-05-08T09:06:43.869Z,35.30
2018-05-08T09:09:11.429Z,35.10
2018-05-08T09:11:39.014Z,35.30
2018-05-08T09:14:06.594Z,35.80
2018-05-08T09:16:34.217Z,36.10
2018-05-08T09:19:01.797Z,35.40
2018-05-08T09:21:29.452Z,35.40
2018-05-08T09:23:57.058Z,36.10
2018-05-08T09:26:25.485Z,36.10
2018-05-08T09:28:53.056Z,36.10
2018-05-08T09:31:21.429Z,35.20
2018-05-08T09:33:49.005Z,35.20
2018-05-08T09:36:16.620Z,35.20
2018-05-08T09:38:45.011Z,35.50
2018-05-08T09:41:12.566Z,35.50
2018-05-08T09:43:40.134Z,35.20
2018-05-08T09:46:07.769Z,35.10
2018-05-08T09:48:35.374Z,35.40
2018-05-08T09:51:03.756Z,35.10
2018-05-08T09:53:31.407Z,35.10
2018-05-08T09:55:59.094Z,34.60
2018-05-08T09:58:26.666Z,34.30
2018-05-08T10:00:54.302Z,34.60
2018-05-08T10:03:21.923Z,35.00
2018-05-08T10:05:50.351Z,35.20
2018-05-08T10:08:17.983Z,35.20
2018-05-08T10:10:45.569Z,35.40
2018-05-08T10:13:13.152Z,34.90
2018-05-08T10:15:40.745Z,34.30
2018-05-08T10:18:08.329Z,34.10
2018-05-08T10:20:35.951Z,33.80
2018-05-08T10:23:03.522Z,33.90
2018-05-08T10:25:31.925Z,34.50
2018-05-08T10:27:59.565Z,34.50
2018-05-08T10:30:27.188Z,35.50
2018-05-08T10:32:54.802Z,35.30
2018-05-08T10:35:22.371Z,35.50
2018-05-08T10:37:50.070Z,35.40
2018-05-08T10:40:18.041Z,36.40
2018-05-08T10:42:45.732Z,36.50
2018-05-08T10:45:13.273Z,36.10
2018-05-08T10:47:40.861Z,35.60
2018-05-08T10:50:09.210Z,35.90
2018-05-08T10:52:36.819Z,35.90
2018-05-08T10:55:04.419Z,36.90
2018-05-08T10:57:32.037Z,36.70
2018-05-08T10:59:59.687Z,36.30
2018-05-08T11:02:27.314Z,36.50
2018-05-08T11:04:54.870Z,36.40
2018-05-08T11:07:22.467Z,36.20
2018-05-08T11:09:50.073Z,36.70
2018-05-08T11:12:17.696Z,37.10
2018-05-08T11:14:45.257Z,37.30
2018-05-08T11:17:12.867Z,36.80
2018-05-08T11:19:40.524Z,36.50
2018-05-08T11:22:08.103Z,36.50
2018-05-08T11:24:36.506Z,35.90
2018-05-08T11:27:04.081Z,35.90
2018-05-08T11:29:31.674Z,35.80
2018-05-08T11:31:59.301Z,35.90
2018-05-08T11:34:26.875Z,36.50
2018-05-08T11:36:54.486Z,37.10
2018-05-08T11:39:22.949Z,36.40
2018-05-08T11:41:50.525Z,36.40
2018-05-08T11:44:18.988Z,36.30
2018-05-08T11:46:46.589Z,36.30
2018-05-08T11:49:14.137Z,35.70
2018-05-08T11:51:41.740Z,36.20
2018-05-08T11:54:09.305Z,36.40
2018-05-08T11:56:36.963Z,36.10
2018-05-08T11:59:04.507Z,36.40
2018-05-08T12:01:32.127Z,36.30
2018-05-08T12:04:00.494Z,36.90
2018-05-08T12:06:28.120Z,36.90
2018-05-08T12:08:55.809Z,36.20
2018-05-08T12:11:23.426Z,36.50
2018-05-08T12:13:51.039Z,36.70
2018-05-08T12:16:18.682Z,36.40
2018-05-08T12:18:46.334Z,36.10
2018-05-08T12:21:13.937Z,36.00
2018-05-08T12:23:41.583Z,36.10
2018-05-08T12:26:09.190Z,35.60
2018-05-08T12:28:36.800Z,35.40
2018-05-08T12:31:04.459Z,35.70
2018-05-08T12:33:32.021Z,36.30
2018-05-08T12:35:59.600Z,36.00
2018-05-08T12:38:27.963Z,36.20
2018-05-08T12:40:55.551Z,36.10
2018-05-08T12:43:24.055Z,35.80
2018-05-08T12:45:51.537Z,35.80
2018-05-08T12:48:19.239Z,35.70
2018-05-08T12:50:47.688Z,36.10
2018-05-08T12:53:15.312Z,36.00
2018-05-08T12:55:43.717Z,35.60
2018-05-08T12:58:11.351Z,35.50
2018-05-08T13:00:38.955Z,35.80
2018-05-08T13:03:06.532Z,35.50
2018-05-08T13:05:34.924Z,35.90
2018-05-08T13:08:03.303Z,35.90
2018-05-08T13:10:30.922Z,35.90
2018-05-08T13:12:58.580Z,35.40
2018-05-08T13:15:26.211Z,35.10
2018-05-08T13:17:53.847Z,34.50
2018-05-08T13:20:22.191Z,34.50
2018-05-08T13:22:49.830Z,34.50
2018-05-08T13:25:17.427Z,34.40
2018-05-08T13:27:45.769Z,33.50
2018-05-08T13:30:13.412Z,33.60
2018-05-08T13:32:41.012Z,33.20
2018-05-08T13:35:08.646Z,33.40
2018-05-08T13:37:36.312Z,33.40
2018-05-08T13:40:03.941Z,34.20
2018-05-08T13:42:31.563Z,34.30
2018-05-08T13:44:59.159Z,34.30
2018-05-08T13:47:32.886Z,34.00
2018-05-08T13:50:00.520Z,33.80
2018-05-08T13:52:28.103Z,33.70
2018-05-08T13:54:55.712Z,33.60
2018-05-08T13:57:23.342Z,33.40
2018-05-08T13:59:50.900Z,33.10
2018-05-08T14:02:18.494Z,32.80
2018-05-08T14:04:46.140Z,33.10
2018-05-08T14:07:13.779Z,33.00
2018-05-08T14:09:41.442Z,33.10
2018-05-08T14:12:09.029Z,33.00
2018-05-08T14:14:36.620Z,33.10
2018-05-08T14:17:09.959Z,32.70
2018-05-08T14:19:37.570Z,32.70
2018-05-08T14:24:44.323Z,32.30
2018-05-08T14:27:11.946Z,32.20
2018-05-08T14:29:39.528Z,32.50
2018-05-08T14:32:07.131Z,32.80
2018-05-08T14:34:35.478Z,33.10
2018-05-08T14:37:03.079Z,33.10
2018-05-08T14:39:31.434Z,33.10
2018-05-08T14:41:59.065Z,33.10
2018-05-08T14:44:26.635Z,32.70
2018-05-08T14:46:54.241Z,32.10
2018-05-08T14:49:22.573Z,31.80
2018-05-08T14:51:50.155Z,31.80
2018-05-08T14:54:17.746Z,32.00
2018-05-08T14:56:45.301Z,32.40
2018-05-08T14:59:12.893Z,32.20
2018-05-08T15:01:40.453Z,32.20
2018-05-08T15:04:08.032Z,31.80
2018-05-08T15:06:35.670Z,31.30
2018-05-08T15:09:03.272Z,31.50
2018-05-08T15:11:54.524Z,31.50
2018-05-08T15:14:22.864Z,31.10
2018-05-08T15:16:50.462Z,31.10
2018-05-08T15:19:18.023Z,31.10
2018-05-08T15:21:45.578Z,30.40
2018-05-08T15:24:27.584Z,30.30
2018-05-08T15:26:55.166Z,30.30
2018-05-08T15:29:23.550Z,30.40
2018-05-08T15:31:51.110Z,30.30
2018-05-08T15:34:18.721Z,30.20
2018-05-08T15:36:47.117Z,30.00
2018-05-08T15:39:14.718Z,30.00
2018-05-08T15:41:42.285Z,29.90
2018-05-08T15:44:09.845Z,29.80
2018-05-08T15:46:37.401Z,29.80
2018-05-08T15:49:04.977Z,29.80
2018-05-08T15:51:32.525Z,30.00
2018-05-08T15:54:00.145Z,30.10
2018-05-08T15:56:27.806Z,30.30
2018-05-08T15:58:55.370Z,30.10
2018-05-08T16:01:22.920Z,29.70
2018-05-08T16:03:50.517Z,29.80
2018-05-08T16:06:18.118Z,29.90
2018-05-08T16:08:46.524Z,30.00
2018-05-08T16:11:14.109Z,30.00
2018-05-08T16:13:41.658Z,30.30
2018-05-08T16:22:12.873Z,30.10
2018-05-08T16:24:40.507Z,30.00
2018-05-08T16:27:08.105Z,30.00
2018-05-08T16:32:28.724Z,29.90
2018-05-08T16:34:56.278Z,30.00
2018-05-08T16:37:23.843Z,30.30
2018-05-08T16:39:51.463Z,30.50
2018-05-08T16:42:19.025Z,30.40
2018-05-08T16:44:46.586Z,30.20
2018-05-08T16:47:14.180Z,29.70
2018-05-08T16:49:41.798Z,29.20
2018-05-08T16:52:09.394Z,28.30
2018-05-08T16:54:36.962Z,27.60
2018-05-08T16:57:04.569Z,27.00
2018-05-08T16:59:32.164Z,26.40
2018-05-08T17:01:59.780Z,26.00
2018-05-08T17:04:27.342Z,25.60
2018-05-08T17:06:54.989Z,25.30
2018-05-08T17:09:23.375Z,24.90
2018-05-08T17:11:55.634Z,24.90
2018-05-08T17:14:23.970Z,24.70
2018-05-08T17:16:51.611Z,24.70
2018-05-08T17:19:19.310Z,24.50
2018-05-08T17:22:05.863Z,24.30
2018-05-08T17:24:33.420Z,24.10
2018-05-08T17:27:01.003Z,23.90
2018-05-08T17:29:28.637Z,23.60
2018-05-08T17:31:56.195Z,23.50
2018-05-08T17:34:23.816Z,23.40
2018-05-08T17:42:39.899Z,22.90
2018-05-08T17:45:18.409Z,22.70
2018-05-08T17:47:45.971Z,22.40
2018-05-08T17:50:37.102Z,22.20
2018-05-08T17:53:04.728Z,22.00
2018-05-08T17:55:32.287Z,22.00
2018-05-08T17:58:18.638Z,21.90
2018-05-08T18:00:46.222Z,21.80
2018-05-08T18:06:08.580Z,21.50
2018-05-08T18:08:36.205Z,21.30
2018-05-08T18:11:03.781Z,21.30
2018-05-08T18:13:31.398Z,21.00
2018-05-08T18:16:11.701Z,20.80
2018-05-08T18:18:39.311Z,20.60
2018-05-08T18:21:06.890Z,20.40
2018-05-08T18:23:34.554Z,20.10
2018-05-08T18:29:07.801Z,19.70
2018-05-08T18:31:35.401Z,19.60
2018-05-08T18:34:03.052Z,19.40
2018-05-08T18:36:30.675Z,19.20
2018-05-08T18:38:58.315Z,19.10
2018-05-08T18:41:25.956Z,19.00
2018-05-08T18:43:53.555Z,19.00
2018-05-08T18:49:20.233Z,18.70
2018-05-08T18:51:47.787Z,18.60
2018-05-08T18:54:15.404Z,18.40
2018-05-08T18:56:43.013Z,18.30
2018-05-08T18:59:10.604Z,18.20
2018-05-08T19:01:39.147Z,18.10
2018-05-08T19:04:06.725Z,18.00
2018-05-08T19:06:35.057Z,17.80
2018-05-08T19:09:02.674Z,17.80
2018-05-08T19:11:35.878Z,17.70
2018-05-08T19:14:03.449Z,17.70
2018-05-08T19:16:31.088Z,17.50
2018-05-08T19:19:04.405Z,17.50
2018-05-08T19:21:32.048Z,17.40
2018-05-08T19:24:05.459Z,17.30
2018-05-08T19:26:33.159Z,17.20
2018-05-08T19:29:07.065Z,17.00
2018-05-08T19:31:34.681Z,17.00
2018-05-08T19:34:02.257Z,16.90
2018-05-08T19:36:35.686Z,16.80
2018-05-08T19:39:03.305Z,16.80
2018-05-08T19:41:30.956Z,16.70
2018-05-08T19:43:58.552Z,16.70
2018-05-08T19:46:26.136Z,16.60
2018-05-08T19:48:53.763Z,16.60
2018-05-08T19:51:21.326Z,16.50
2018-05-08T19:53:48.884Z,16.40
2018-05-08T19:56:16.472Z,16.30
2018-05-08T19:58:45.010Z,16.30
2018-05-08T20:01:12.574Z,16.20
2018-05-08T20:03:40.258Z,16.20
2018-05-08T20:06:07.894Z,16.20
2018-05-08T20:08:35.494Z,16.20
2018-05-08T20:11:03.115Z,16.20
2018-05-08T20:13:30.718Z,16.20
2018-05-08T20:18:52.313Z,16.00
2018-05-08T20:21:19.902Z,16.00
2018-05-08T20:23:47.544Z,16.00
2018-05-08T20:26:15.099Z,16.00
2018-05-08T20:28:42.659Z,16.10
2018-05-08T20:31:10.282Z,16.00
2018-05-08T20:33:38.709Z,15.90
2018-05-08T20:36:06.346Z,15.90
2018-05-08T20:38:33.932Z,15.90
2018-05-08T20:41:01.556Z,15.90
2018-05-08T20:43:29.137Z,15.80
2018-05-08T20:45:56.734Z,15.90
2018-05-08T20:48:24.288Z,15.90
2018-05-08T20:50:51.927Z,15.70
2018-05-08T20:53:19.520Z,15.60
2018-05-08T20:55:47.095Z,15.50
2018-05-08T20:58:14.695Z,15.50
2018-05-08T21:00:42.244Z,15.50
2018-05-08T21:03:09.817Z,15.50
2018-05-08T21:05:48.162Z,15.50
2018-05-08T21:08:15.745Z,15.50
2018-05-08T21:10:44.126Z,15.40
2018-05-08T21:13:12.511Z,15.40
2018-05-08T21:15:40.136Z,15.40
2018-05-08T21:18:07.751Z,15.40
2018-05-08T21:20:35.355Z,15.40
2018-05-08T21:23:02.942Z,15.40
2018-05-08T21:25:30.542Z,15.40
2018-05-08T21:28:03.643Z,15.50
2018-05-08T21:30:36.822Z,15.50
2018-05-08T21:33:05.162Z,15.30
2018-05-08T21:35:32.719Z,15.30
2018-05-08T21:38:01.064Z,15.10
2018-05-08T21:40:28.685Z,15.00
2018-05-08T21:42:56.293Z,15.00
2018-05-08T21:45:23.940Z,15.00
2018-05-08T21:47:51.490Z,14.90
2018-05-08T21:50:19.078Z,15.00
2018-05-08T21:52:46.662Z,14.90
2018-05-08T21:55:15.046Z,14.90
2018-05-08T21:57:43.376Z,14.80
2018-05-08T22:00:12.798Z,14.80
2018-05-08T22:02:40.432Z,14.70
2018-05-08T22:05:07.991Z,14.70
2018-05-08T22:07:35.626Z,14.50
2018-05-08T22:10:03.237Z,14.40
2018-05-08T22:12:30.837Z,14.20
2018-05-08T22:14:58.405Z,14.10
2018-05-08T22:17:25.979Z,14.00
2018-05-08T22:19:53.563Z,14.00
2018-05-08T22:22:21.147Z,14.00
2018-05-08T22:24:48.747Z,13.90
2018-05-08T22:27:16.332Z,13.90
2018-05-08T22:29:43.942Z,13.80
2018-05-08T22:32:12.321Z,13.70
2018-05-08T22:34:40.724Z,13.60
2018-05-08T22:37:08.294Z,13.60
2018-05-08T22:39:35.922Z,13.50
2018-05-08T22:42:04.234Z,13.30
2018-05-08T22:44:31.865Z,13.30
2018-05-08T22:47:00.203Z,13.10
2018-05-08T22:49:27.792Z,13.10
2018-05-08T22:51:55.419Z,13.10
2018-05-08T22:54:23.016Z,13.00
2018-05-08T22:56:51.361Z,12.90
2018-05-08T22:59:18.969Z,12.90
2018-05-08T23:01:47.397Z,12.90
2018-05-08T23:04:15.018Z,12.90
2018-05-08T23:06:42.635Z,12.90
2018-05-08T23:09:10.205Z,12.80
2018-05-08T23:11:37.796Z,12.80
2018-05-08T23:14:05.365Z,12.80
2018-05-08T23:16:32.943Z,12.60
2018-05-08T23:19:00.555Z,12.70
2018-05-08T23:21:28.963Z,12.60
2018-05-08T23:23:56.541Z,12.60
2018-05-08T23:26:24.088Z,12.50
2018-05-08T23:28:52.441Z,12.40
2018-05-08T23:31:20.769Z,12.40
2018-05-08T23:33:48.381Z,12.40
2018-05-08T23:36:16.715Z,12.30
2018-05-08T23:38:44.328Z,12.30
2018-05-08T23:41:11.909Z,12.30
2018-05-08T23:43:39.466Z,12.20
2018-05-08T23:46:07.116Z,12.20
2018-05-08T23:48:34.673Z,12.20
2018-05-08T23:51:02.256Z,12.20
2018-05-08T23:53:29.814Z,12.20
2018-05-08T23:55:57.439Z,12.20
2018-05-08T23:58:25.025Z,12.10
